sensor_id;sensor_type;location;lat;lon;timestamp;temperature;humidity
1704;DHT22;849;48.780;9.216;2023-07-28T00:01:48;20.00;99.90
1704;DHT22;849;48.780;9.216;2023-07-28T00:04:19;19.90;99.90
1704;DHT22;849;48.780;9.216;2023-07-28T00:06:50;19.90;99.90
1704;DHT22;849;48.780;9.216;2023-07-28T00:09:21;19.90;99.90
1704;DHT22;849;48.780;9.216;2023-07-28T00:11:53;19.80;99.90
1704;DHT22;849;48.780;9.216;2023-07-28T00:14:25;19.70;99.90
1704;DHT22;849;48.780;9.216;2023-07-28T00:16:57;19.70;99.90
1704;DHT22;849;48.780;9.216;2023-07-28T00:19:27;19.70;99.90
1704;DHT22;849;48.780;9.216;2023-07-28T00:21:58;19.70;99.90
1704;DHT22;849;48.780;9.216;2023-07-28T00:24:29;19.70;99.90
1704;DHT22;849;48.780;9.216;2023-07-28T00:27:00;19.70;99.90
1704;DHT22;849;48.780;9.216;2023-07-28T00:29:31;19.70;99.90
1704;DHT22;849;48.780;9.216;2023-07-28T00:32:01;19.70;99.90
1704;DHT22;849;48.780;9.216;2023-07-28T00:34:32;19.70;99.90
1704;DHT22;849;48.780;9.216;2023-07-28T00:37:03;19.70;99.90
1704;DHT22;849;48.780;9.216;2023-07-28T00:39:34;19.60;99.90
1704;DHT22;849;48.780;9.216;2023-07-28T00:42:05;19.60;99.90
1704;DHT22;849;48.780;9.216;2023-07-28T00:44:36;19.60;99.90
1704;DHT22;849;48.780;9.216;2023-07-28T00:47:07;19.50;99.90
1704;DHT22;849;48.780;9.216;2023-07-28T00:49:39;19.50;99.90
1704;DHT22;849;48.780;9.216;2023-07-28T00:52:10;19.50;99.90
1704;DHT22;849;48.780;9.216;2023-07-28T00:54:41;19.50;99.90
1704;DHT22;849;48.780;9.216;2023-07-28T00:57:13;19.40;99.90
1704;DHT22;849;48.780;9.216;2023-07-28T00:59:44;19.40;99.90
1704;DHT22;849;48.780;9.216;2023-07-28T01:02:15;19.30;99.90
1704;DHT22;849;48.780;9.216;2023-07-28T01:04:47;19.30;99.90
1704;DHT22;849;48.780;9.216;2023-07-28T01:10:30;19.30;99.90
1704;DHT22;849;48.780;9.216;2023-07-28T01:13:01;19.30;99.90
1704;DHT22;849;48.780;9.216;2023-07-28T01:15:32;19.40;99.90
1704;DHT22;849;48.780;9.216;2023-07-28T01:18:03;19.40;99.90
1704;DHT22;849;48.780;9.216;2023-07-28T01:20:34;19.30;99.90
1704;DHT22;849;48.780;9.216;2023-07-28T01:26:11;19.40;99.90
1704;DHT22;849;48.780;9.216;2023-07-28T01:28:43;19.40;99.90
1704;DHT22;849;48.780;9.216;2023-07-28T01:31:15;19.40;99.90
1704;DHT22;849;48.780;9.216;2023-07-28T01:33:45;19.40;99.90
1704;DHT22;849;48.780;9.216;2023-07-28T01:36:17;19.40;99.90
1704;DHT22;849;48.780;9.216;2023-07-28T01:38:47;19.30;99.90
1704;DHT22;849;48.780;9.216;2023-07-28T01:41:18;19.30;99.90
1704;DHT22;849;48.780;9.216;2023-07-28T01:43:49;19.30;99.90
1704;DHT22;849;48.780;9.216;2023-07-28T01:46:20;19.30;99.90
1704;DHT22;849;48.780;9.216;2023-07-28T01:48:51;19.30;99.90
1704;DHT22;849;48.780;9.216;2023-07-28T01:51:21;19.40;99.90
1704;DHT22;849;48.780;9.216;2023-07-28T01:53:52;19.40;99.90
1704;DHT22;849;48.780;9.216;2023-07-28T01:56:23;19.40;99.90
1704;DHT22;849;48.780;9.216;2023-07-28T01:58:54;19.40;99.90
1704;DHT22;849;48.780;9.216;2023-07-28T02:01:24;19.30;99.90
1704;DHT22;849;48.780;9.216;2023-07-28T02:03:55;19.30;99.90
1704;DHT22;849;48.780;9.216;2023-07-28T02:06:26;19.40;99.90
1704;DHT22;849;48.780;9.216;2023-07-28T02:08:58;19.40;99.90
1704;DHT22;849;48.780;9.216;2023-07-28T02:11:29;19.50;99.90
1704;DHT22;849;48.780;9.216;2023-07-28T02:13:59;19.50;99.90
1704;DHT22;849;48.780;9.216;2023-07-28T02:16:30;19.60;99.90
1704;DHT22;849;48.780;9.216;2023-07-28T02:19:02;19.60;99.90
1704;DHT22;849;48.780;9.216;2023-07-28T02:21:33;19.60;99.90
1704;DHT22;849;48.780;9.216;2023-07-28T02:24:04;19.60;99.90
1704;DHT22;849;48.780;9.216;2023-07-28T02:26:35;19.60;99.90
1704;DHT22;849;48.780;9.216;2023-07-28T02:29:06;19.60;99.90
1704;DHT22;849;48.780;9.216;2023-07-28T02:31:36;19.60;99.90
1704;DHT22;849;48.780;9.216;2023-07-28T02:34:07;19.60;99.90
1704;DHT22;849;48.780;9.216;2023-07-28T02:36:38;19.60;99.90
1704;DHT22;849;48.780;9.216;2023-07-28T02:39:09;19.60;99.90
1704;DHT22;849;48.780;9.216;2023-07-28T02:41:40;19.60;99.90
1704;DHT22;849;48.780;9.216;2023-07-28T02:44:10;19.60;99.90
1704;DHT22;849;48.780;9.216;2023-07-28T02:46:41;19.60;99.90
1704;DHT22;849;48.780;9.216;2023-07-28T02:49:12;19.60;99.90
1704;DHT22;849;48.780;9.216;2023-07-28T02:51:38;19.50;99.90
1704;DHT22;849;48.780;9.216;2023-07-28T02:54:05;19.50;99.90
1704;DHT22;849;48.780;9.216;2023-07-28T02:56:36;19.50;99.90
1704;DHT22;849;48.780;9.216;2023-07-28T02:59:08;19.50;99.90
1704;DHT22;849;48.780;9.216;2023-07-28T03:01:39;19.50;99.90
1704;DHT22;849;48.780;9.216;2023-07-28T03:04:09;19.50;99.90
1704;DHT22;849;48.780;9.216;2023-07-28T03:06:40;19.60;99.90
1704;DHT22;849;48.780;9.216;2023-07-28T03:09:11;19.60;99.90
1704;DHT22;849;48.780;9.216;2023-07-28T03:11:42;19.60;99.90
1704;DHT22;849;48.780;9.216;2023-07-28T03:14:13;19.60;99.90
1704;DHT22;849;48.780;9.216;2023-07-28T03:16:44;19.60;99.90
1704;DHT22;849;48.780;9.216;2023-07-28T03:19:11;19.60;99.90
1704;DHT22;849;48.780;9.216;2023-07-28T03:21:42;19.60;99.90
1704;DHT22;849;48.780;9.216;2023-07-28T03:24:12;19.60;99.90
1704;DHT22;849;48.780;9.216;2023-07-28T03:26:43;19.60;99.90
1704;DHT22;849;48.780;9.216;2023-07-28T03:29:14;19.50;99.90
1704;DHT22;849;48.780;9.216;2023-07-28T03:31:45;19.50;99.90
1704;DHT22;849;48.780;9.216;2023-07-28T03:34:15;19.60;99.90
1704;DHT22;849;48.780;9.216;2023-07-28T03:36:46;19.50;99.90
1704;DHT22;849;48.780;9.216;2023-07-28T03:39:17;19.60;99.90
1704;DHT22;849;48.780;9.216;2023-07-28T03:41:48;19.60;99.90
1704;DHT22;849;48.780;9.216;2023-07-28T03:44:19;19.60;99.90
1704;DHT22;849;48.780;9.216;2023-07-28T03:46:50;19.60;99.90
1704;DHT22;849;48.780;9.216;2023-07-28T03:49:22;19.60;99.90
1704;DHT22;849;48.780;9.216;2023-07-28T03:51:52;19.60;99.90
1704;DHT22;849;48.780;9.216;2023-07-28T03:54:18;19.60;99.90
1704;DHT22;849;48.780;9.216;2023-07-28T03:56:49;19.60;99.90
1704;DHT22;849;48.780;9.216;2023-07-28T03:59:20;19.60;99.90
1704;DHT22;849;48.780;9.216;2023-07-28T04:01:51;19.60;99.90
1704;DHT22;849;48.780;9.216;2023-07-28T04:04:23;19.40;99.90
1704;DHT22;849;48.780;9.216;2023-07-28T04:06:53;19.50;99.90
1704;DHT22;849;48.780;9.216;2023-07-28T04:09:24;19.50;99.90
1704;DHT22;849;48.780;9.216;2023-07-28T04:11:50;19.50;99.90
1704;DHT22;849;48.780;9.216;2023-07-28T04:14:21;19.60;99.90
1704;DHT22;849;48.780;9.216;2023-07-28T04:16:52;19.60;99.90
1704;DHT22;849;48.780;9.216;2023-07-28T04:19:23;19.60;99.90
1704;DHT22;849;48.780;9.216;2023-07-28T04:21:54;19.70;99.90
1704;DHT22;849;48.780;9.216;2023-07-28T04:24:20;19.70;99.90
1704;DHT22;849;48.780;9.216;2023-07-28T04:26:51;19.70;99.90
1704;DHT22;849;48.780;9.216;2023-07-28T04:29:17;19.80;99.90
1704;DHT22;849;48.780;9.216;2023-07-28T04:31:48;19.80;99.90
1704;DHT22;849;48.780;9.216;2023-07-28T04:34:19;19.80;99.90
1704;DHT22;849;48.780;9.216;2023-07-28T04:36:49;19.80;99.90
1704;DHT22;849;48.780;9.216;2023-07-28T04:39:20;19.80;99.90
1704;DHT22;849;48.780;9.216;2023-07-28T04:41:51;19.80;99.90
1704;DHT22;849;48.780;9.216;2023-07-28T04:44:22;19.80;99.90
1704;DHT22;849;48.780;9.216;2023-07-28T04:46:53;19.80;99.90
1704;DHT22;849;48.780;9.216;2023-07-28T04:49:23;19.90;99.90
1704;DHT22;849;48.780;9.216;2023-07-28T04:51:54;19.90;99.90
1704;DHT22;849;48.780;9.216;2023-07-28T04:54:20;19.90;99.90
1704;DHT22;849;48.780;9.216;2023-07-28T04:56:51;19.90;99.90
1704;DHT22;849;48.780;9.216;2023-07-28T04:59:23;20.00;99.90
1704;DHT22;849;48.780;9.216;2023-07-28T05:01:54;20.00;99.90
1704;DHT22;849;48.780;9.216;2023-07-28T05:04:25;19.90;99.90
1704;DHT22;849;48.780;9.216;2023-07-28T05:06:56;19.90;99.90
1704;DHT22;849;48.780;9.216;2023-07-28T05:09:27;19.90;99.90
1704;DHT22;849;48.780;9.216;2023-07-28T05:11:58;19.90;99.90
1704;DHT22;849;48.780;9.216;2023-07-28T05:14:29;19.80;99.90
1704;DHT22;849;48.780;9.216;2023-07-28T05:17:00;19.90;99.90
1704;DHT22;849;48.780;9.216;2023-07-28T05:19:31;19.90;99.90
1704;DHT22;849;48.780;9.216;2023-07-28T05:22:02;19.90;99.90
1704;DHT22;849;48.780;9.216;2023-07-28T05:24:34;19.90;99.90
1704;DHT22;849;48.780;9.216;2023-07-28T05:27:05;20.00;99.90
1704;DHT22;849;48.780;9.216;2023-07-28T05:29:36;20.00;99.90
1704;DHT22;849;48.780;9.216;2023-07-28T05:32:07;19.80;99.90
1704;DHT22;849;48.780;9.216;2023-07-28T05:34:38;19.80;99.90
1704;DHT22;849;48.780;9.216;2023-07-28T05:37:12;19.90;99.90
1704;DHT22;849;48.780;9.216;2023-07-28T05:39:43;20.00;99.90
1704;DHT22;849;48.780;9.216;2023-07-28T05:42:14;20.00;99.90
1704;DHT22;849;48.780;9.216;2023-07-28T05:44:45;20.10;99.90
1704;DHT22;849;48.780;9.216;2023-07-28T05:47:16;20.10;99.90
1704;DHT22;849;48.780;9.216;2023-07-28T05:49:47;20.20;99.90
1704;DHT22;849;48.780;9.216;2023-07-28T05:52:17;20.10;99.90
1704;DHT22;849;48.780;9.216;2023-07-28T05:54:48;20.10;99.90
1704;DHT22;849;48.780;9.216;2023-07-28T05:57:19;20.00;99.90
1704;DHT22;849;48.780;9.216;2023-07-28T05:59:50;20.00;99.90
1704;DHT22;849;48.780;9.216;2023-07-28T06:02:20;20.10;99.90
1704;DHT22;849;48.780;9.216;2023-07-28T06:04:52;20.20;99.90
1704;DHT22;849;48.780;9.216;2023-07-28T06:07:23;20.20;99.90
1704;DHT22;849;48.780;9.216;2023-07-28T06:09:54;20.20;99.90
1704;DHT22;849;48.780;9.216;2023-07-28T06:12:25;20.20;99.90
1704;DHT22;849;48.780;9.216;2023-07-28T06:14:56;20.30;99.90
1704;DHT22;849;48.780;9.216;2023-07-28T06:17:27;20.30;99.90
1704;DHT22;849;48.780;9.216;2023-07-28T06:19:59;20.20;99.90
1704;DHT22;849;48.780;9.216;2023-07-28T06:22:25;20.20;99.90
1704;DHT22;849;48.780;9.216;2023-07-28T06:24:56;20.20;99.90
1704;DHT22;849;48.780;9.216;2023-07-28T06:27:27;20.10;99.90
1704;DHT22;849;48.780;9.216;2023-07-28T06:29:58;20.20;99.90
1704;DHT22;849;48.780;9.216;2023-07-28T06:32:28;20.30;99.90
1704;DHT22;849;48.780;9.216;2023-07-28T06:34:59;20.30;99.90
1704;DHT22;849;48.780;9.216;2023-07-28T06:37:30;20.30;99.90
1704;DHT22;849;48.780;9.216;2023-07-28T06:40:01;20.30;99.90
1704;DHT22;849;48.780;9.216;2023-07-28T06:42:33;20.30;99.90
1704;DHT22;849;48.780;9.216;2023-07-28T06:45:05;20.40;99.90
1704;DHT22;849;48.780;9.216;2023-07-28T06:47:35;20.40;99.90
1704;DHT22;849;48.780;9.216;2023-07-28T06:50:06;20.40;99.90
1704;DHT22;849;48.780;9.216;2023-07-28T06:52:37;20.50;99.90
1704;DHT22;849;48.780;9.216;2023-07-28T06:55:08;20.50;99.90
1704;DHT22;849;48.780;9.216;2023-07-28T06:57:39;20.50;99.90
1704;DHT22;849;48.780;9.216;2023-07-28T07:00:10;20.60;99.90
1704;DHT22;849;48.780;9.216;2023-07-28T07:02:41;20.60;99.90
1704;DHT22;849;48.780;9.216;2023-07-28T07:05:12;20.70;99.90
1704;DHT22;849;48.780;9.216;2023-07-28T07:07:43;20.80;99.90
1704;DHT22;849;48.780;9.216;2023-07-28T07:10:13;20.80;99.90
1704;DHT22;849;48.780;9.216;2023-07-28T07:12:44;20.90;99.90
1704;DHT22;849;48.780;9.216;2023-07-28T07:15:15;20.90;99.90
1704;DHT22;849;48.780;9.216;2023-07-28T07:17:46;20.90;99.90
1704;DHT22;849;48.780;9.216;2023-07-28T07:20:16;20.90;99.90
1704;DHT22;849;48.780;9.216;2023-07-28T07:22:47;21.00;99.90
1704;DHT22;849;48.780;9.216;2023-07-28T07:25:18;21.00;99.90
1704;DHT22;849;48.780;9.216;2023-07-28T07:27:49;20.90;99.90
1704;DHT22;849;48.780;9.216;2023-07-28T07:30:19;20.90;99.90
1704;DHT22;849;48.780;9.216;2023-07-28T07:32:50;21.00;99.90
1704;DHT22;849;48.780;9.216;2023-07-28T07:35:21;21.00;99.90
1704;DHT22;849;48.780;9.216;2023-07-28T07:37:52;21.10;99.90
1704;DHT22;849;48.780;9.216;2023-07-28T07:40:23;21.10;99.90
1704;DHT22;849;48.780;9.216;2023-07-28T07:42:54;21.20;99.90
1704;DHT22;849;48.780;9.216;2023-07-28T07:45:24;21.20;99.90
1704;DHT22;849;48.780;9.216;2023-07-28T07:47:55;21.30;99.90
1704;DHT22;849;48.780;9.216;2023-07-28T07:50:26;21.20;99.90
1704;DHT22;849;48.780;9.216;2023-07-28T07:52:57;21.20;99.90
1704;DHT22;849;48.780;9.216;2023-07-28T07:55:28;21.30;99.90
1704;DHT22;849;48.780;9.216;2023-07-28T07:57:58;21.30;99.90
1704;DHT22;849;48.780;9.216;2023-07-28T08:00:29;21.30;99.90
1704;DHT22;849;48.780;9.216;2023-07-28T08:03:00;21.40;99.90
1704;DHT22;849;48.780;9.216;2023-07-28T08:05:31;21.30;99.90
1704;DHT22;849;48.780;9.216;2023-07-28T08:08:02;21.30;99.90
1704;DHT22;849;48.780;9.216;2023-07-28T08:10:33;21.40;99.90
1704;DHT22;849;48.780;9.216;2023-07-28T08:13:04;21.50;99.90
1704;DHT22;849;48.780;9.216;2023-07-28T08:15:35;21.60;99.90
1704;DHT22;849;48.780;9.216;2023-07-28T08:18:06;21.70;99.90
1704;DHT22;849;48.780;9.216;2023-07-28T08:20:37;21.70;99.90
1704;DHT22;849;48.780;9.216;2023-07-28T08:23:07;21.80;99.90
1704;DHT22;849;48.780;9.216;2023-07-28T08:25:38;21.80;99.90
1704;DHT22;849;48.780;9.216;2023-07-28T08:28:09;21.80;99.90
1704;DHT22;849;48.780;9.216;2023-07-28T08:30:40;21.80;99.90
1704;DHT22;849;48.780;9.216;2023-07-28T08:33:11;21.80;99.90
1704;DHT22;849;48.780;9.216;2023-07-28T08:35:41;21.80;99.90
1704;DHT22;849;48.780;9.216;2023-07-28T08:38:12;21.80;99.90
1704;DHT22;849;48.780;9.216;2023-07-28T08:40:44;21.90;99.90
1704;DHT22;849;48.780;9.216;2023-07-28T08:43:15;21.90;99.90
1704;DHT22;849;48.780;9.216;2023-07-28T08:45:46;21.90;99.90
1704;DHT22;849;48.780;9.216;2023-07-28T08:48:17;21.90;99.90
1704;DHT22;849;48.780;9.216;2023-07-28T08:50:48;22.00;99.90
1704;DHT22;849;48.780;9.216;2023-07-28T08:53:19;21.90;99.90
1704;DHT22;849;48.780;9.216;2023-07-28T08:55:50;22.00;99.90
1704;DHT22;849;48.780;9.216;2023-07-28T08:58:22;22.00;99.90
1704;DHT22;849;48.780;9.216;2023-07-28T09:00:54;22.10;99.90
1704;DHT22;849;48.780;9.216;2023-07-28T09:03:25;22.10;99.90
1704;DHT22;849;48.780;9.216;2023-07-28T09:06:03;22.10;99.90
1704;DHT22;849;48.780;9.216;2023-07-28T09:08:35;22.10;99.90
1704;DHT22;849;48.780;9.216;2023-07-28T09:11:07;22.10;99.90
1704;DHT22;849;48.780;9.216;2023-07-28T09:13:40;22.10;99.90
1704;DHT22;849;48.780;9.216;2023-07-28T09:16:18;22.10;99.90
1704;DHT22;849;48.780;9.216;2023-07-28T09:18:49;22.10;99.90
1704;DHT22;849;48.780;9.216;2023-07-28T09:21:23;22.20;99.90
1704;DHT22;849;48.780;9.216;2023-07-28T09:23:54;22.20;99.90
1704;DHT22;849;48.780;9.216;2023-07-28T09:26:36;22.20;99.90
1704;DHT22;849;48.780;9.216;2023-07-28T09:29:18;22.20;99.90
1704;DHT22;849;48.780;9.216;2023-07-28T09:31:50;22.00;99.90
1704;DHT22;849;48.780;9.216;2023-07-28T09:34:25;22.00;99.90
1704;DHT22;849;48.780;9.216;2023-07-28T09:36:58;21.90;99.90
1704;DHT22;849;48.780;9.216;2023-07-28T09:39:29;21.90;99.90
1704;DHT22;849;48.780;9.216;2023-07-28T09:42:02;22.00;99.90
1704;DHT22;849;48.780;9.216;2023-07-28T09:44:33;22.10;99.90
1704;DHT22;849;48.780;9.216;2023-07-28T09:47:04;22.30;99.90
1704;DHT22;849;48.780;9.216;2023-07-28T09:49:36;22.50;99.90
1704;DHT22;849;48.780;9.216;2023-07-28T09:52:11;22.40;99.90
1704;DHT22;849;48.780;9.216;2023-07-28T09:54:47;22.20;99.90
1704;DHT22;849;48.780;9.216;2023-07-28T09:57:20;22.20;99.90
1704;DHT22;849;48.780;9.216;2023-07-28T09:59:54;22.50;99.90
1704;DHT22;849;48.780;9.216;2023-07-28T10:02:26;22.60;99.90
1704;DHT22;849;48.780;9.216;2023-07-28T10:04:57;22.70;99.90
1704;DHT22;849;48.780;9.216;2023-07-28T10:07:29;22.70;99.90
1704;DHT22;849;48.780;9.216;2023-07-28T10:10:00;22.70;99.90
1704;DHT22;849;48.780;9.216;2023-07-28T10:12:46;22.80;99.90
1704;DHT22;849;48.780;9.216;2023-07-28T10:15:19;22.80;99.90
1704;DHT22;849;48.780;9.216;2023-07-28T10:17:53;22.90;99.90
1704;DHT22;849;48.780;9.216;2023-07-28T10:20:36;23.00;99.90
1704;DHT22;849;48.780;9.216;2023-07-28T10:23:13;23.00;99.90
1704;DHT22;849;48.780;9.216;2023-07-28T10:25:45;23.10;99.90
1704;DHT22;849;48.780;9.216;2023-07-28T10:28:29;23.10;99.90
1704;DHT22;849;48.780;9.216;2023-07-28T10:31:02;23.10;99.90
1704;DHT22;849;48.780;9.216;2023-07-28T10:33:34;23.10;99.90
1704;DHT22;849;48.780;9.216;2023-07-28T10:41:35;23.10;99.90
1704;DHT22;849;48.780;9.216;2023-07-28T10:44:07;23.10;99.90
1704;DHT22;849;48.780;9.216;2023-07-28T10:46:39;23.10;99.90
1704;DHT22;849;48.780;9.216;2023-07-28T10:49:09;23.20;99.90
1704;DHT22;849;48.780;9.216;2023-07-28T10:51:40;23.20;99.90
1704;DHT22;849;48.780;9.216;2023-07-28T10:54:11;23.00;99.90
1704;DHT22;849;48.780;9.216;2023-07-28T10:56:47;22.90;99.90
1704;DHT22;849;48.780;9.216;2023-07-28T10:59:18;23.00;99.90
1704;DHT22;849;48.780;9.216;2023-07-28T11:01:49;22.90;99.90
1704;DHT22;849;48.780;9.216;2023-07-28T11:04:20;22.90;99.90
1704;DHT22;849;48.780;9.216;2023-07-28T11:06:51;23.00;99.90
1704;DHT22;849;48.780;9.216;2023-07-28T11:09:23;23.20;99.90
1704;DHT22;849;48.780;9.216;2023-07-28T11:11:56;23.30;99.90
1704;DHT22;849;48.780;9.216;2023-07-28T11:14:27;23.40;99.90
1704;DHT22;849;48.780;9.216;2023-07-28T11:17:01;23.30;99.90
1704;DHT22;849;48.780;9.216;2023-07-28T11:19:33;23.30;99.90
1704;DHT22;849;48.780;9.216;2023-07-28T11:22:04;23.30;99.90
1704;DHT22;849;48.780;9.216;2023-07-28T11:24:35;23.50;99.90
1704;DHT22;849;48.780;9.216;2023-07-28T11:27:06;23.60;99.90
1704;DHT22;849;48.780;9.216;2023-07-28T11:29:40;23.70;99.90
1704;DHT22;849;48.780;9.216;2023-07-28T11:32:11;23.90;99.90
1704;DHT22;849;48.780;9.216;2023-07-28T11:34:41;23.60;99.90
1704;DHT22;849;48.780;9.216;2023-07-28T11:37:14;23.40;99.90
1704;DHT22;849;48.780;9.216;2023-07-28T11:39:45;23.40;99.90
1704;DHT22;849;48.780;9.216;2023-07-28T11:42:16;23.60;99.90
1704;DHT22;849;48.780;9.216;2023-07-28T11:44:49;23.40;99.90
1704;DHT22;849;48.780;9.216;2023-07-28T11:47:20;23.50;99.90
1704;DHT22;849;48.780;9.216;2023-07-28T11:49:51;23.80;99.90
1704;DHT22;849;48.780;9.216;2023-07-28T11:52:22;24.00;99.90
1704;DHT22;849;48.780;9.216;2023-07-28T11:54:53;24.10;99.90
1704;DHT22;849;48.780;9.216;2023-07-28T11:57:26;24.10;99.90
1704;DHT22;849;48.780;9.216;2023-07-28T11:59:57;24.10;99.90
1704;DHT22;849;48.780;9.216;2023-07-28T12:02:30;24.20;99.90
1704;DHT22;849;48.780;9.216;2023-07-28T12:05:15;24.30;99.90
1704;DHT22;849;48.780;9.216;2023-07-28T12:07:48;24.30;99.90
1704;DHT22;849;48.780;9.216;2023-07-28T12:10:19;24.30;99.90
1704;DHT22;849;48.780;9.216;2023-07-28T12:12:50;24.20;99.90
1704;DHT22;849;48.780;9.216;2023-07-28T12:15:28;24.30;99.90
1704;DHT22;849;48.780;9.216;2023-07-28T12:18:15;24.20;99.90
1704;DHT22;849;48.780;9.216;2023-07-28T12:20:48;24.20;99.90
1704;DHT22;849;48.780;9.216;2023-07-28T12:23:21;24.20;99.90
1704;DHT22;849;48.780;9.216;2023-07-28T12:25:52;24.20;99.90
1704;DHT22;849;48.780;9.216;2023-07-28T12:28:26;24.00;99.90
1704;DHT22;849;48.780;9.216;2023-07-28T12:30:56;24.00;99.90
1704;DHT22;849;48.780;9.216;2023-07-28T12:33:29;24.10;99.90
1704;DHT22;849;48.780;9.216;2023-07-28T12:36:00;24.10;99.90
1704;DHT22;849;48.780;9.216;2023-07-28T12:38:31;24.00;99.90
1704;DHT22;849;48.780;9.216;2023-07-28T12:41:01;24.00;99.90
1704;DHT22;849;48.780;9.216;2023-07-28T12:43:32;24.00;99.90
1704;DHT22;849;48.780;9.216;2023-07-28T12:46:03;24.00;99.90
1704;DHT22;849;48.780;9.216;2023-07-28T12:48:35;24.00;99.90
1704;DHT22;849;48.780;9.216;2023-07-28T12:51:06;24.10;99.90
1704;DHT22;849;48.780;9.216;2023-07-28T12:53:37;24.00;99.90
1704;DHT22;849;48.780;9.216;2023-07-28T12:56:07;24.10;99.90
1704;DHT22;849;48.780;9.216;2023-07-28T12:58:38;23.80;99.90
1704;DHT22;849;48.780;9.216;2023-07-28T13:01:09;23.70;99.90
1704;DHT22;849;48.780;9.216;2023-07-28T13:03:42;23.50;99.90
1704;DHT22;849;48.780;9.216;2023-07-28T13:06:13;23.70;99.90
1704;DHT22;849;48.780;9.216;2023-07-28T13:08:43;23.80;99.90
1704;DHT22;849;48.780;9.216;2023-07-28T13:11:14;24.00;99.90
1704;DHT22;849;48.780;9.216;2023-07-28T13:13:45;24.10;99.90
1704;DHT22;849;48.780;9.216;2023-07-28T13:16:16;24.10;99.90
1704;DHT22;849;48.780;9.216;2023-07-28T13:18:47;23.90;99.90
1704;DHT22;849;48.780;9.216;2023-07-28T13:21:18;23.90;99.90
1704;DHT22;849;48.780;9.216;2023-07-28T13:23:48;24.10;99.90
1704;DHT22;849;48.780;9.216;2023-07-28T13:26:19;24.00;99.90
1704;DHT22;849;48.780;9.216;2023-07-28T13:28:50;24.00;99.90
1704;DHT22;849;48.780;9.216;2023-07-28T13:31:21;23.80;99.90
1704;DHT22;849;48.780;9.216;2023-07-28T13:33:52;23.80;99.90
1704;DHT22;849;48.780;9.216;2023-07-28T13:36:22;23.80;99.90
1704;DHT22;849;48.780;9.216;2023-07-28T13:38:53;23.70;99.90
1704;DHT22;849;48.780;9.216;2023-07-28T13:41:24;23.90;99.90
1704;DHT22;849;48.780;9.216;2023-07-28T13:43:55;23.80;99.90
1704;DHT22;849;48.780;9.216;2023-07-28T13:46:26;23.70;99.90
1704;DHT22;849;48.780;9.216;2023-07-28T13:48:57;23.70;99.90
1704;DHT22;849;48.780;9.216;2023-07-28T13:51:28;23.80;99.90
1704;DHT22;849;48.780;9.216;2023-07-28T13:53:58;23.70;99.90
1704;DHT22;849;48.780;9.216;2023-07-28T13:56:29;23.50;99.90
1704;DHT22;849;48.780;9.216;2023-07-28T13:59:00;23.50;99.90
1704;DHT22;849;48.780;9.216;2023-07-28T14:01:31;23.50;99.90
1704;DHT22;849;48.780;9.216;2023-07-28T14:04:03;23.40;99.90
1704;DHT22;849;48.780;9.216;2023-07-28T14:06:34;23.20;99.90
1704;DHT22;849;48.780;9.216;2023-07-28T14:09:04;23.10;99.90
1704;DHT22;849;48.780;9.216;2023-07-28T14:11:36;23.00;99.90
1704;DHT22;849;48.780;9.216;2023-07-28T14:14:07;22.90;99.90
1704;DHT22;849;48.780;9.216;2023-07-28T14:16:38;22.80;99.90
1704;DHT22;849;48.780;9.216;2023-07-28T14:19:09;22.80;99.90
1704;DHT22;849;48.780;9.216;2023-07-28T14:21:40;22.70;99.90
1704;DHT22;849;48.780;9.216;2023-07-28T14:24:10;22.60;99.90
1704;DHT22;849;48.780;9.216;2023-07-28T14:26:41;22.70;99.90
1704;DHT22;849;48.780;9.216;2023-07-28T14:29:12;22.70;99.90
1704;DHT22;849;48.780;9.216;2023-07-28T14:31:43;22.60;99.90
1704;DHT22;849;48.780;9.216;2023-07-28T14:34:14;22.40;99.90
1704;DHT22;849;48.780;9.216;2023-07-28T14:36:45;22.20;99.90
1704;DHT22;849;48.780;9.216;2023-07-28T14:39:16;22.10;99.90
1704;DHT22;849;48.780;9.216;2023-07-28T14:41:48;22.20;99.90
1704;DHT22;849;48.780;9.216;2023-07-28T14:44:18;22.30;99.90
1704;DHT22;849;48.780;9.216;2023-07-28T14:46:49;22.40;99.90
1704;DHT22;849;48.780;9.216;2023-07-28T14:49:20;22.50;99.90
1704;DHT22;849;48.780;9.216;2023-07-28T14:51:51;22.50;99.90
1704;DHT22;849;48.780;9.216;2023-07-28T14:54:22;22.50;99.90
1704;DHT22;849;48.780;9.216;2023-07-28T14:56:53;22.50;99.90
1704;DHT22;849;48.780;9.216;2023-07-28T14:59:23;22.60;99.90
1704;DHT22;849;48.780;9.216;2023-07-28T15:01:54;22.70;99.90
1704;DHT22;849;48.780;9.216;2023-07-28T15:04:25;22.70;99.90
1704;DHT22;849;48.780;9.216;2023-07-28T15:06:56;22.70;99.90
1704;DHT22;849;48.780;9.216;2023-07-28T15:09:27;22.70;99.90
1704;DHT22;849;48.780;9.216;2023-07-28T15:11:57;22.70;99.90
1704;DHT22;849;48.780;9.216;2023-07-28T15:14:28;22.70;99.90
1704;DHT22;849;48.780;9.216;2023-07-28T15:16:59;22.70;99.90
1704;DHT22;849;48.780;9.216;2023-07-28T15:19:30;22.80;99.90
1704;DHT22;849;48.780;9.216;2023-07-28T15:22:01;22.80;99.90
1704;DHT22;849;48.780;9.216;2023-07-28T15:24:31;22.90;99.90
1704;DHT22;849;48.780;9.216;2023-07-28T15:27:02;22.90;99.90
1704;DHT22;849;48.780;9.216;2023-07-28T15:29:33;23.00;99.90
1704;DHT22;849;48.780;9.216;2023-07-28T15:32:04;23.10;99.90
1704;DHT22;849;48.780;9.216;2023-07-28T15:34:35;23.00;99.90
1704;DHT22;849;48.780;9.216;2023-07-28T15:37:06;23.00;99.90
1704;DHT22;849;48.780;9.216;2023-07-28T15:39:37;23.00;99.90
1704;DHT22;849;48.780;9.216;2023-07-28T15:42:07;23.00;99.90
1704;DHT22;849;48.780;9.216;2023-07-28T15:44:38;23.00;99.90
1704;DHT22;849;48.780;9.216;2023-07-28T15:47:09;23.00;99.90
1704;DHT22;849;48.780;9.216;2023-07-28T15:49:40;23.00;99.90
1704;DHT22;849;48.780;9.216;2023-07-28T15:52:10;23.00;99.90
1704;DHT22;849;48.780;9.216;2023-07-28T15:54:41;23.10;99.90
1704;DHT22;849;48.780;9.216;2023-07-28T15:57:12;23.10;99.90
1704;DHT22;849;48.780;9.216;2023-07-28T15:59:45;23.00;99.90
1704;DHT22;849;48.780;9.216;2023-07-28T16:02:16;23.00;99.90
1704;DHT22;849;48.780;9.216;2023-07-28T16:04:47;23.00;99.90
1704;DHT22;849;48.780;9.216;2023-07-28T16:07:18;23.00;99.90
1704;DHT22;849;48.780;9.216;2023-07-28T16:09:49;23.10;99.90
1704;DHT22;849;48.780;9.216;2023-07-28T16:12:20;23.00;99.90
1704;DHT22;849;48.780;9.216;2023-07-28T16:14:51;23.00;99.90
1704;DHT22;849;48.780;9.216;2023-07-28T16:17:22;22.80;99.90
1704;DHT22;849;48.780;9.216;2023-07-28T16:19:53;22.70;99.90
1704;DHT22;849;48.780;9.216;2023-07-28T16:22:24;22.80;99.90
1704;DHT22;849;48.780;9.216;2023-07-28T16:24:54;22.80;99.90
1704;DHT22;849;48.780;9.216;2023-07-28T16:27:26;22.90;99.90
1704;DHT22;849;48.780;9.216;2023-07-28T16:29:56;22.90;99.90
1704;DHT22;849;48.780;9.216;2023-07-28T16:32:27;22.90;99.90
1704;DHT22;849;48.780;9.216;2023-07-28T16:34:58;23.00;99.90
1704;DHT22;849;48.780;9.216;2023-07-28T16:37:29;22.90;99.90
1704;DHT22;849;48.780;9.216;2023-07-28T16:40:00;23.00;99.90
1704;DHT22;849;48.780;9.216;2023-07-28T16:42:31;22.90;99.90
1704;DHT22;849;48.780;9.216;2023-07-28T16:45:01;23.00;99.90
1704;DHT22;849;48.780;9.216;2023-07-28T16:47:32;23.00;99.90
1704;DHT22;849;48.780;9.216;2023-07-28T16:50:07;23.00;99.90
1704;DHT22;849;48.780;9.216;2023-07-28T16:52:38;23.00;99.90
1704;DHT22;849;48.780;9.216;2023-07-28T16:55:09;23.00;99.90